Time;durP1;ratioP1;P1;durP2;ratioP2;P2;SDS_P1;SDS_P2;PMS_P1;PMS_P2;Temp;Humidity;BMP_temperature;BMP_pressure;BME280_temperature;BME280_humidity;BME280_pressure;Samples;Min_cycle;Max_cycle;Signal;HPM_P1;HPM_P2
2022/03/28 00:01:29;;;;;;;5.78;4.28;;;;;;;11.95;68.42;102757.53;5097033;28;20024;-84
2022/03/28 00:03:55;;;;;;;6.00;4.70;;;;;;;12.05;68.23;102774.91;5099870;28;20036;-84
2022/03/28 00:06:20;;;;;;;7.03;4.90;;;;;;;11.92;68.27;102745.91;5095426;28;20024;-83
2022/03/28 00:08:46;;;;;;;6.82;4.75;;;;;;;11.95;68.44;102757.53;5107777;28;20040;-83
2022/03/28 00:11:12;;;;;;;6.93;4.65;;;;;;;12.09;68.04;102779.59;5115730;28;20027;-83
2022/03/28 00:13:38;;;;;;;6.03;4.32;;;;;;;11.95;68.34;102754.91;5115676;28;20499;-83
2022/03/28 00:16:04;;;;;;;6.40;4.90;;;;;;;12.04;68.43;102769.53;5115368;28;20035;-83
2022/03/28 00:18:29;;;;;;;6.07;4.22;;;;;;;12.01;68.20;102760.63;5106471;28;20364;-83
2022/03/28 00:20:55;;;;;;;5.03;4.13;;;;;;;12.06;68.17;102767.94;5096012;28;20119;-83
2022/03/28 00:23:22;;;;;;;5.97;4.30;;;;;;;12.06;68.21;102775.81;5093900;28;20028;-83
2022/03/28 00:25:48;;;;;;;8.55;4.95;;;;;;;11.95;68.62;102754.00;5094216;28;20148;-83
2022/03/28 00:28:14;;;;;;;5.47;4.22;;;;;;;11.92;68.10;102757.28;5113656;28;20023;-83
2022/03/28 00:30:41;;;;;;;6.38;4.20;;;;;;;12.04;68.39;102773.06;5113924;28;20039;-83
2022/03/28 00:33:06;;;;;;;7.00;4.50;;;;;;;11.89;68.44;102758.75;5117654;28;20515;-83
2022/03/28 00:35:32;;;;;;;5.40;4.45;;;;;;;11.94;68.54;102767.91;5126382;28;20023;-83
2022/03/28 00:37:58;;;;;;;5.32;4.60;;;;;;;12.01;68.54;102772.81;5106619;28;20612;-83
2022/03/28 00:40:27;;;;;;;6.20;4.30;;;;;;;11.85;68.26;102739.22;5095865;28;20032;-84
2022/03/28 00:42:54;;;;;;;7.07;4.80;;;;;;;11.97;68.34;102765.50;5095041;28;20032;-84
2022/03/28 00:45:20;;;;;;;6.75;4.70;;;;;;;11.86;68.21;102746.28;5093589;28;20050;-84
2022/03/28 00:47:46;;;;;;;6.30;4.43;;;;;;;11.95;68.13;102759.25;5109820;28;20024;-84
2022/03/28 00:50:11;;;;;;;5.47;4.32;;;;;;;11.90;68.42;102757.97;5113474;28;20031;-85
2022/03/28 00:52:38;;;;;;;6.40;4.85;;;;;;;11.96;68.23;102768.94;5115018;28;20031;-84
2022/03/28 00:55:06;;;;;;;7.70;4.60;;;;;;;11.96;67.98;102768.94;5113997;28;20032;-83
2022/03/28 00:57:32;;;;;;;6.43;4.50;;;;;;;11.95;68.05;102769.72;5102550;28;20036;-83
2022/03/28 00:59:58;;;;;;;;;;;;;;;12.00;68.10;102766.69;5100316;28;20066;-83
2022/03/28 01:02:24;;;;;;;6.40;4.55;;;;;;;11.90;68.53;102750.13;5114580;28;19912;-83
2022/03/28 01:04:50;;;;;;;5.93;4.45;;;;;;;11.61;67.98;102704.13;5114702;28;20446;-84
2022/03/28 01:07:17;;;;;;;5.25;4.07;;;;;;;11.84;68.22;102737.41;5111332;28;20043;-84
2022/03/28 01:09:43;;;;;;;6.68;4.32;;;;;;;11.79;68.15;102729.19;5114702;27;20153;-84
2022/03/28 01:12:09;;;;;;;;;;;;;;;11.98;68.17;102746.38;5099840;28;20058;-83
2022/03/28 01:14:35;;;;;;;6.15;4.25;;;;;;;11.92;68.25;102743.28;5092449;28;20347;-84
2022/03/28 01:19:53;;;;;;;5.43;4.10;;;;;;;11.75;67.94;102720.97;5092907;28;20042;-83
2022/03/28 01:22:18;;;;;;;6.05;4.50;;;;;;;11.90;68.15;102748.41;5093670;28;20028;-83
2022/03/28 01:24:44;;;;;;;6.10;4.30;;;;;;;11.90;68.22;102744.88;5092437;28;20553;-83
2022/03/28 01:27:10;;;;;;;5.75;4.40;;;;;;;11.71;68.34;102711.03;5104477;28;20552;-83
2022/03/28 01:29:36;;;;;;;5.40;4.03;;;;;;;11.74;68.26;102727.88;5092354;28;20125;-83
2022/03/28 01:32:02;;;;;;;5.38;4.20;;;;;;;11.87;68.27;102745.50;5093616;28;20481;-83
2022/03/28 01:34:28;;;;;;;5.70;4.22;;;;;;;11.75;68.46;102734.06;5093695;28;20031;-82
2022/03/28 01:36:53;;;;;;;8.00;4.43;;;;;;;11.86;68.47;102750.63;5099036;28;20035;-83
2022/03/28 01:39:19;;;;;;;5.18;4.00;;;;;;;11.86;68.52;102758.47;5112867;28;20081;-82
2022/03/28 01:41:46;;;;;;;5.20;3.95;;;;;;;11.87;68.33;102752.44;5112627;28;20035;-82
2022/03/28 01:44:12;;;;;;;6.50;4.20;;;;;;;11.76;68.07;102730.63;5111217;28;20111;-83
2022/03/28 01:46:44;;;;;;;5.40;4.30;;;;;;;11.84;68.37;102747.88;5093384;28;20044;-83
2022/03/28 01:49:11;;;;;;;5.63;4.30;;;;;;;11.77;68.30;102742.94;5106062;28;20038;-82
2022/03/28 01:51:38;;;;;;;5.97;4.10;;;;;;;11.78;68.24;102734.28;5112404;28;20532;-83
2022/03/28 01:54:04;;;;;;;5.78;4.22;;;;;;;11.81;68.15;102745.94;5113631;28;20028;-83
2022/03/28 01:56:30;;;;;;;5.78;4.45;;;;;;;11.81;68.37;102755.50;5111342;28;20564;-83
2022/03/28 01:58:55;;;;;;;5.90;3.85;;;;;;;11.43;68.38;102700.00;5105595;28;20032;-83
2022/03/28 02:01:21;;;;;;;6.10;4.13;;;;;;;11.82;68.40;102759.91;5097738;28;20051;-82
2022/03/28 02:03:47;;;;;;;5.72;4.47;;;;;;;11.79;68.45;102757.97;5109891;28;20056;-83
2022/03/28 02:06:13;;;;;;;5.30;4.03;;;;;;;11.80;68.36;102765.03;5111829;28;20028;-83
2022/03/28 02:08:39;;;;;;;6.00;4.28;;;;;;;11.78;68.31;102765.69;5110200;28;20039;-82
2022/03/28 02:11:04;;;;;;;5.30;4.10;;;;;;;11.46;68.23;102705.50;5101425;28;20015;-83
2022/03/28 02:13:30;;;;;;;5.93;4.53;;;;;;;11.69;68.18;102744.03;5111855;28;20073;-83
2022/03/28 02:15:56;;;;;;;4.88;3.92;;;;;;;11.75;68.24;102744.53;5099438;28;20024;-83
2022/03/28 02:18:21;;;;;;;7.38;4.07;;;;;;;11.75;67.94;102760.22;5091468;28;20068;-83
2022/03/28 02:20:47;;;;;;;5.30;4.10;;;;;;;11.74;68.34;102771.47;5092479;28;20084;-83
2022/03/28 02:23:12;;;;;;;7.32;4.22;;;;;;;11.68;68.44;102776.19;5092496;28;20028;-83
2022/03/28 02:25:39;;;;;;;6.77;4.53;;;;;;;11.58;68.32;102757.16;5092688;28;20040;-83
2022/03/28 02:28:05;;;;;;;5.28;4.20;;;;;;;11.73;68.09;102781.03;5104325;28;20265;-83
2022/03/28 02:30:31;;;;;;;6.10;4.45;;;;;;;11.59;68.55;102772.03;5112218;28;20028;-82
2022/03/28 02:32:57;;;;;;;4.97;3.90;;;;;;;11.65;68.14;102774.25;5111857;28;20067;-83
2022/03/28 02:35:23;;;;;;;;;;;;;;;11.77;67.93;102784.81;5112342;28;20503;-83
2022/03/28 02:37:49;;;;;;;6.90;4.00;;;;;;;11.72;68.50;102791.38;5111371;28;19908;-82
2022/03/28 02:40:15;;;;;;;5.80;4.25;;;;;;;11.40;68.41;102751.28;5099391;28;20024;-83
2022/03/28 02:42:40;;;;;;;6.10;4.30;;;;;;;11.55;68.24;102775.19;5091078;28;20481;-83
2022/03/28 02:45:06;;;;;;;5.35;4.03;;;;;;;11.64;68.03;102784.59;5101223;28;20520;-85
2022/03/28 02:47:32;;;;;;;7.18;4.55;;;;;;;11.47;68.20;102749.19;5110967;28;20138;-84
2022/03/28 02:49:58;;;;;;;7.93;4.00;;;;;;;11.33;68.44;102738.50;5106248;28;20401;-85
2022/03/28 02:52:23;;;;;;;5.80;4.18;;;;;;;11.45;68.37;102761.22;5098472;28;20028;-83
2022/03/28 02:54:49;;;;;;;4.85;3.80;;;;;;;11.09;68.33;102699.84;5092758;28;20030;-83
2022/03/28 02:57:15;;;;;;;5.32;4.40;;;;;;;11.54;68.39;102781.22;5091995;28;20067;-84
2022/03/28 02:59:41;;;;;;;4.93;4.00;;;;;;;11.61;68.34;102790.50;5096624;28;20392;-84
2022/03/28 03:02:06;;;;;;;5.93;4.40;;;;;;;11.18;68.50;102714.63;5111242;28;20034;-83
2022/03/28 03:04:32;;;;;;;6.07;4.25;;;;;;;11.18;68.04;102717.25;5109526;28;20393;-83
2022/03/28 03:06:58;;;;;;;5.18;4.30;;;;;;;11.61;68.57;102796.63;5111348;28;20488;-83
2022/03/28 03:09:24;;;;;;;5.93;4.40;;;;;;;11.11;68.21;102706.13;5109049;28;20028;-83
2022/03/28 03:11:50;;;;;;;4.90;3.92;;;;;;;11.54;68.60;102788.19;5090200;28;20024;-82
2022/03/28 03:14:16;;;;;;;6.00;4.28;;;;;;;11.54;68.35;102790.78;5091266;28;20066;-83
2022/03/28 03:16:42;;;;;;;6.22;4.20;;;;;;;11.53;68.39;102784.63;5090293;28;20048;-82
2022/03/28 03:19:07;;;;;;;5.57;4.05;;;;;;;11.28;68.68;102745.06;5091891;28;20107;-82
2022/03/28 03:21:33;;;;;;;5.70;4.22;;;;;;;11.40;68.83;102772.22;5103093;28;20088;-83
2022/03/28 03:23:59;;;;;;;6.80;3.90;;;;;;;11.51;68.72;102794.03;5092213;28;20036;-84
2022/03/28 03:26:24;;;;;;;4.72;4.00;;;;;;;11.51;68.45;102793.13;5092064;28;20046;-83
2022/03/28 03:28:50;;;;;;;6.70;4.13;;;;;;;11.47;68.50;102789.38;5100083;28;20477;-84
2022/03/28 03:31:15;;;;;;;6.90;4.22;;;;;;;11.53;68.42;102795.09;5116749;28;20032;-84
2022/03/28 03:33:41;;;;;;;5.88;4.07;;;;;;;11.31;68.50;102763.63;5113624;28;20036;-84
2022/03/28 03:36:07;;;;;;;5.57;4.05;;;;;;;11.30;68.35;102756.59;5110800;28;20091;-84
2022/03/28 03:38:34;;;;;;;5.05;4.22;;;;;;;11.27;68.25;102747.56;5111103;28;20085;-84
2022/03/28 03:40:59;;;;;;;4.32;3.90;;;;;;;11.32;68.51;102760.22;5095721;28;20111;-84
2022/03/28 03:43:25;;;;;;;7.07;4.47;;;;;;;11.34;68.46;102769.09;5091027;28;20092;-83
2022/03/28 03:45:51;;;;;;;5.53;3.97;;;;;;;11.28;68.55;102763.38;5091375;28;20486;-83
2022/03/28 03:48:19;;;;;;;5.88;4.20;;;;;;;11.39;68.79;102788.72;5093666;28;20476;-84
2022/03/28 03:50:45;;;;;;;6.55;4.45;;;;;;;11.28;68.40;102766.00;5108007;28;20091;-83
2022/03/28 03:53:10;;;;;;;5.38;4.10;;;;;;;11.25;68.73;102760.50;5110782;28;20476;-83
2022/03/28 03:55:37;;;;;;;6.38;4.35;;;;;;;11.43;68.61;102789.91;5098803;28;20114;-83
2022/03/28 03:58:02;;;;;;;;;;;;;;;11.48;68.27;102799.03;5103013;28;20028;-83
2022/03/28 04:00:28;;;;;;;7.05;4.45;;;;;;;11.16;68.58;102749.28;5100951;28;19919;-84
2022/03/28 04:02:54;;;;;;;7.57;4.32;;;;;;;11.28;68.71;102767.69;5090541;28;20032;-84
2022/03/28 04:05:19;;;;;;;7.07;4.25;;;;;;;11.25;68.38;102764.81;5099615;28;20028;-83
2022/03/28 04:07:45;;;;;;;5.68;4.35;;;;;;;11.39;68.29;102804.44;5098185;27;20473;-82
2022/03/28 04:10:11;;;;;;;5.55;4.25;;;;;;;11.19;68.64;102766.13;5108794;28;20043;-83
2022/03/28 04:12:38;;;;;;;5.35;4.10;;;;;;;11.39;68.37;102807.03;5110539;27;20080;-82
2022/03/28 04:15:04;;;;;;;6.07;4.03;;;;;;;11.11;68.47;102755.81;5127055;27;20409;-84
2022/03/28 04:17:38;;;;;;;7.15;3.97;;;;;;;11.06;68.49;102754.53;5112699;27;20032;-84
2022/03/28 04:20:05;;;;;;;5.72;4.03;;;;;;;11.37;68.67;102808.63;5122881;27;20139;-84
2022/03/28 04:22:30;;;;;;;5.30;3.97;;;;;;;10.77;68.40;102716.38;5135930;27;20110;-84
2022/03/28 04:24:56;;;;;;;6.00;4.10;;;;;;;11.25;68.62;102799.72;5120992;27;20063;-84
2022/03/28 04:27:22;;;;;;;6.03;4.22;;;;;;;11.15;68.67;102782.38;5100532;28;20038;-83
2022/03/28 04:29:47;;;;;;;5.97;4.17;;;;;;;11.31;68.32;102815.94;5095021;28;20028;-84
2022/03/28 04:32:13;;;;;;;5.55;3.97;;;;;;;11.30;68.45;102806.28;5114919;28;20789;-84
2022/03/28 04:34:38;;;;;;;5.07;3.97;;;;;;;11.11;68.76;102780.28;5113432;28;20485;-83
2022/03/28 04:37:04;;;;;;;5.22;4.35;;;;;;;11.34;68.48;102817.91;5113400;28;20034;-83
2022/03/28 04:39:30;;;;;;;5.90;4.03;;;;;;;11.27;68.50;102811.25;5103754;28;20533;-83
2022/03/28 04:41:56;;;;;;;5.25;3.72;;;;;;;11.29;68.39;102809.66;5093661;28;20485;-83
2022/03/28 04:44:21;;;;;;;5.97;4.00;;;;;;;10.99;68.75;102766.19;5109181;27;20093;-83
2022/03/28 04:46:47;;;;;;;5.50;4.20;;;;;;;11.14;68.75;102790.09;5107788;27;20047;-83
2022/03/28 04:49:14;;;;;;;5.40;4.03;;;;;;;11.24;68.44;102815.28;5120475;27;20527;-82
2022/03/28 04:51:40;;;;;;;6.13;4.13;;;;;;;10.84;68.32;102742.28;5095160;28;20119;-83
2022/03/28 04:54:06;;;;;;;6.95;3.92;;;;;;;11.14;68.61;102795.31;5092759;28;20525;-85
2022/03/28 04:56:34;;;;;;;4.53;3.67;;;;;;;11.30;68.63;102826.25;5105409;27;20057;-83
2022/03/28 04:59:00;;;;;;;6.25;4.28;;;;;;;11.01;68.60;102785.53;5111391;28;20451;-83
2022/03/28 05:01:25;;;;;;;5.82;4.10;;;;;;;11.17;68.48;102820.00;5105646;27;20025;-84
2022/03/28 05:03:51;;;;;;;5.50;4.20;;;;;;;10.81;68.73;102755.06;5098637;27;20486;-83
2022/03/28 05:06:17;;;;;;;6.97;4.17;;;;;;;10.97;68.55;102779.09;5113136;28;20115;-83
2022/03/28 05:08:42;;;;;;;5.05;3.78;;;;;;;11.16;68.74;102815.56;5112954;28;20832;-83
2022/03/28 05:11:08;;;;;;;5.35;4.22;;;;;;;11.08;68.65;102805.25;5102705;27;20067;-84
2022/03/28 05:13:34;;;;;;;4.70;3.77;;;;;;;10.98;68.64;102790.47;5104064;28;20034;-84
2022/03/28 05:15:59;;;;;;;4.68;3.60;;;;;;;11.21;68.58;102826.41;5110968;28;20857;-84
2022/03/28 05:18:25;;;;;;;6.45;3.97;;;;;;;11.08;68.46;102800.94;5094322;28;20489;-83
2022/03/28 05:20:51;;;;;;;5.20;3.75;;;;;;;11.22;68.61;102830.88;5102638;28;20024;-82
2022/03/28 05:23:16;;;;;;;6.22;3.83;;;;;;;11.06;68.52;102798.97;5100680;28;20043;-82
2022/03/28 05:25:43;;;;;;;5.85;3.90;;;;;;;11.25;68.47;102823.28;5106453;28;20019;-82
2022/03/28 05:28:09;;;;;;;4.80;3.95;;;;;;;11.03;68.55;102799.63;5108623;28;20493;-83
2022/03/28 05:30:35;;;;;;;5.68;4.03;;;;;;;11.14;68.90;102813.63;5096766;28;20405;-85
2022/03/28 05:33:01;;;;;;;6.00;4.22;;;;;;;11.02;68.68;102789.94;5110054;28;20031;-84
2022/03/28 05:35:27;;;;;;;5.95;4.28;;;;;;;10.84;68.70;102754.41;5112907;28;20113;-84
2022/03/28 05:37:53;;;;;;;;;;;;;;;11.26;68.67;102819.88;5107915;28;20036;-85
2022/03/28 05:40:18;;;;;;;4.95;3.80;;;;;;;11.03;68.63;102794.41;5091969;28;20365;-85
2022/03/28 05:42:44;;;;;;;6.45;4.00;;;;;;;11.23;68.59;102827.47;5104972;28;20484;-85
2022/03/28 05:45:12;;;;;;;6.15;3.90;;;;;;;10.97;68.38;102789.56;5091532;28;20083;-84
2022/03/28 05:47:39;;;;;;;5.07;4.13;;;;;;;10.89;68.92;102785.38;5105413;28;20035;-85
2022/03/28 05:50:05;;;;;;;5.68;4.00;;;;;;;11.16;68.72;102828.66;5104265;28;20047;-84
2022/03/28 05:52:30;;;;;;;5.35;4.22;;;;;;;11.21;68.81;102831.66;5125221;27;20027;-84
2022/03/28 05:54:56;;;;;;;4.80;4.05;;;;;;;10.80;68.92;102768.94;5127405;27;20044;-84
2022/03/28 05:57:22;;;;;;;6.03;4.00;;;;;;;11.14;68.50;102818.84;5091609;28;20107;-84
2022/03/28 05:59:47;;;;;;;6.22;4.22;;;;;;;10.83;68.48;102771.78;5104263;27;20023;-84
2022/03/28 06:02:13;;;;;;;4.30;3.85;;;;;;;10.98;68.76;102798.31;5131698;27;20062;-84
2022/03/28 06:04:38;;;;;;;4.90;3.67;;;;;;;11.13;68.81;102814.38;5130579;27;20052;-84
2022/03/28 06:07:04;;;;;;;5.38;3.97;;;;;;;11.19;68.58;102825.38;5118136;27;20506;-84
2022/03/28 06:09:30;;;;;;;5.68;4.00;;;;;;;11.12;68.31;102812.56;5110481;27;20515;-84
2022/03/28 06:11:56;;;;;;;5.25;3.92;;;;;;;10.82;68.50;102764.75;5110834;28;20118;-84
2022/03/28 06:14:21;;;;;;;4.85;3.97;;;;;;;11.16;68.76;102818.19;5091962;28;20032;-85
2022/03/28 06:16:47;;;;;;;4.78;3.83;;;;;;;10.96;68.33;102781.59;5111394;28;20035;-85
2022/03/28 06:19:13;;;;;;;4.28;3.35;;;;;;;10.93;68.49;102783.94;5111207;28;20020;-85
2022/03/28 06:21:39;;;;;;;4.30;3.58;;;;;;;10.88;68.57;102778.34;5111134;28;20035;-86
2022/03/28 06:24:05;;;;;;;5.75;3.95;;;;;;;10.64;68.80;102745.78;5110954;28;20037;-85
2022/03/28 06:26:31;;;;;;;4.82;3.75;;;;;;;11.00;68.75;102805.50;5108107;28;20038;-84
2022/03/28 06:28:57;;;;;;;5.93;4.18;;;;;;;11.07;68.56;102819.09;5095685;28;20031;-84
2022/03/28 06:31:22;;;;;;;5.55;3.72;;;;;;;11.17;68.42;102830.47;5115025;28;20088;-84
2022/03/28 06:33:48;;;;;;;5.18;4.00;;;;;;;10.73;68.49;102757.03;5109443;28;20016;-85
2022/03/28 06:36:14;;;;;;;4.93;3.90;;;;;;;10.86;68.33;102779.91;5114478;28;20039;-85
2022/03/28 06:38:40;;;;;;;6.43;4.30;;;;;;;11.17;68.32;102840.91;5096944;28;20115;-85
2022/03/28 06:41:05;;;;;;;5.53;4.30;;;;;;;11.13;68.73;102837.91;5106484;28;20273;-84
2022/03/28 06:43:31;;;;;;;5.90;3.80;;;;;;;11.02;68.34;102818.72;5112771;28;20515;-84
2022/03/28 06:45:59;;;;;;;6.10;3.80;;;;;;;11.10;68.80;102842.91;5115364;28;20055;-84
2022/03/28 06:48:27;;;;;;;5.50;4.10;;;;;;;10.90;68.49;102800.28;5108383;28;20054;-84
2022/03/28 06:50:52;;;;;;;5.63;3.75;;;;;;;10.98;68.79;102825.41;5098959;28;20023;-85
2022/03/28 06:53:18;;;;;;;4.63;3.80;;;;;;;11.09;68.42;102846.28;5111365;28;20424;-85
2022/03/28 06:55:44;;;;;;;5.65;3.70;;;;;;;10.90;68.60;102818.59;5103178;28;20465;-86
2022/03/28 06:58:09;;;;;;;4.72;3.67;;;;;;;11.15;68.77;102859.88;5102876;28;20404;-85
2022/03/28 07:00:35;;;;;;;5.32;3.83;;;;;;;10.89;68.65;102816.75;5094169;28;20028;-85
2022/03/28 07:03:01;;;;;;;5.65;4.13;;;;;;;10.96;68.81;102826.03;5109449;28;20044;-86
2022/03/28 07:05:28;;;;;;;5.72;3.90;;;;;;;10.72;68.70;102788.25;5111064;28;20026;-85
2022/03/28 07:07:56;;;;;;;5.38;3.85;;;;;;;11.14;68.53;102863.31;5107309;28;20035;-86
2022/03/28 07:10:22;;;;;;;5.55;4.03;;;;;;;11.14;68.50;102863.31;5099583;28;20036;-86
2022/03/28 07:12:48;;;;;;;;;;;;;;;11.15;68.57;102859.88;5112734;28;20020;-86
2022/03/28 07:15:14;;;;;;;6.90;4.15;;;;;;;10.93;68.95;102831.91;5110645;28;19943;-85
2022/03/28 07:17:56;;;;;;;4.70;3.80;;;;;;;11.10;68.75;102871.66;5111338;28;20571;-85
2022/03/28 07:20:23;;;;;;;5.53;3.70;;;;;;;11.01;69.02;102856.09;5110783;28;20058;-86
2022/03/28 07:22:50;;;;;;;4.85;3.70;;;;;;;10.95;69.21;102843.41;5111060;28;20023;-84
2022/03/28 07:25:16;;;;;;;4.97;3.90;;;;;;;10.68;68.70;102788.78;5110452;28;20034;-85
2022/03/28 07:27:41;;;;;;;4.63;3.50;;;;;;;10.74;69.14;102794.53;5110823;28;20040;-85
2022/03/28 07:30:08;;;;;;;5.20;3.80;;;;;;;10.76;69.43;102808.66;5099053;28;20409;-84
2022/03/28 07:32:34;;;;;;;4.95;3.85;;;;;;;11.11;69.42;102861.34;5110550;28;20539;-85
2022/03/28 07:35:00;;;;;;;5.15;3.90;;;;;;;10.96;69.21;102845.25;5107686;28;20024;-85
2022/03/28 07:37:26;;;;;;;7.50;4.03;;;;;;;10.71;69.28;102792.59;5090346;28;20036;-85
2022/03/28 07:39:52;;;;;;;9.40;4.20;;;;;;;11.09;69.40;102870.75;5098718;28;20035;-85
2022/03/28 07:42:18;;;;;;;4.53;3.72;;;;;;;11.02;69.49;102846.56;5096357;28;20035;-84
2022/03/28 07:44:44;;;;;;;5.00;3.85;;;;;;;10.84;69.09;102810.22;5114594;28;20023;-85
2022/03/28 07:47:11;;;;;;;;;;;;;;;11.12;69.28;102863.16;5110160;28;20031;-86
2022/03/28 07:49:38;;;;;;;4.90;3.80;;;;;;;10.91;69.09;102830.88;5099796;28;19912;-85
2022/03/28 07:52:07;;;;;;;6.18;4.20;;;;;;;11.07;69.01;102855.69;5078320;28;20039;-85
2022/03/28 07:54:34;;;;;;;4.45;3.60;;;;;;;11.00;69.00;102849.94;5115439;28;20027;-86
2022/03/28 07:57:00;;;;;;;5.30;3.80;;;;;;;10.93;69.04;102823.16;5098048;28;20036;-85
2022/03/28 07:59:26;;;;;;;4.75;3.72;;;;;;;10.80;68.91;102808.13;5097956;28;20125;-85
2022/03/28 08:01:52;;;;;;;5.00;3.50;;;;;;;11.02;69.22;102833.50;5108745;28;20035;-85
2022/03/28 08:04:18;;;;;;;5.80;3.72;;;;;;;11.07;68.82;102847.84;5088524;28;20019;-85
2022/03/28 08:06:44;;;;;;;6.70;3.78;;;;;;;10.67;68.55;102774.81;5110124;28;20035;-85
2022/03/28 08:09:09;;;;;;;5.97;3.83;;;;;;;10.96;68.37;102818.19;5112714;28;20504;-85
2022/03/28 08:11:35;;;;;;;5.50;3.95;;;;;;;10.98;68.59;102827.06;5097072;28;20035;-86
2022/03/28 08:14:04;;;;;;;5.57;3.90;;;;;;;11.13;68.51;102856.22;5093488;28;20051;-85
2022/03/28 08:16:31;;;;;;;4.90;3.60;;;;;;;10.86;68.60;102813.88;5107818;28;20679;-85
2022/03/28 08:18:57;;;;;;;6.03;3.95;;;;;;;10.63;68.57;102777.94;5101693;28;20028;-85
2022/03/28 08:21:23;;;;;;;5.38;3.80;;;;;;;10.82;67.91;102798.72;5110288;28;20605;-85
2022/03/28 08:23:49;;;;;;;4.63;3.65;;;;;;;11.14;68.45;102850.22;5093798;28;20141;-86
2022/03/28 08:26:15;;;;;;;5.50;3.47;;;;;;;10.75;67.67;102778.06;5093892;28;20112;-85
2022/03/28 08:28:41;;;;;;;;;;;;;;;11.16;67.90;102844.34;5110012;28;20028;-85
2022/03/28 08:31:07;;;;;;;4.85;3.85;;;;;;;10.93;68.12;102810.09;5113493;28;19922;-85
2022/03/28 08:33:33;;;;;;;5.28;4.07;;;;;;;10.74;67.82;102769.31;5094681;28;20428;-84
2022/03/28 08:35:59;;;;;;;4.82;3.58;;;;;;;10.87;67.75;102796.50;5102325;28;20042;-84
2022/03/28 08:38:24;;;;;;;5.97;3.67;;;;;;;11.07;67.46;102830.50;5108733;28;20040;-84
2022/03/28 08:40:50;;;;;;;4.97;3.92;;;;;;;10.87;68.05;102812.19;5106381;28;20028;-84
2022/03/28 08:43:18;;;;;;;6.05;3.80;;;;;;;11.10;67.92;102845.53;5097257;28;20103;-85
2022/03/28 08:45:44;;;;;;;4.95;3.75;;;;;;;11.03;67.98;102830.06;5094743;28;20040;-84
2022/03/28 08:48:12;;;;;;;5.13;3.50;;;;;;;10.71;67.90;102776.91;5097327;28;20032;-84
2022/03/28 08:50:43;;;;;;;6.20;3.97;;;;;;;10.67;68.02;102764.34;5111930;28;20053;-84
2022/03/28 08:53:08;;;;;;;8.02;3.92;;;;;;;10.78;68.13;102784.47;5113216;28;20020;-84
2022/03/28 08:55:34;;;;;;;6.93;3.53;;;;;;;10.82;67.89;102796.13;5111842;28;20034;-84
2022/03/28 08:58:00;;;;;;;6.97;3.90;;;;;;;10.82;68.16;102787.38;5112185;28;20031;-84
2022/03/28 09:00:26;;;;;;;5.35;3.55;;;;;;;10.67;68.20;102752.97;5112491;28;20516;-85
2022/03/28 09:02:55;;;;;;;4.00;3.28;;;;;;;10.93;67.77;102800.53;5114194;28;20119;-85
2022/03/28 09:05:29;;;;;;;5.35;3.65;;;;;;;10.99;68.10;102814.13;5113255;28;20081;-85
2022/03/28 09:07:58;;;;;;;5.47;3.67;;;;;;;10.94;67.81;102805.00;5113245;28;20473;-84
2022/03/28 09:10:27;;;;;;;5.47;3.58;;;;;;;10.99;67.83;102805.38;5113605;28;20028;-84
2022/03/28 09:13:09;;;;;;;4.25;3.60;;;;;;;11.02;67.70;102803.03;5113076;28;20076;-84
2022/03/28 09:15:50;;;;;;;4.18;3.40;;;;;;;11.01;68.15;102803.81;5113340;28;20024;-85
2022/03/28 09:18:22;;;;;;;5.53;3.78;;;;;;;11.03;67.46;102804.88;5112803;28;20069;-84
2022/03/28 09:20:50;;;;;;;5.60;3.80;;;;;;;10.86;67.61;102773.75;5111417;28;20108;-84
2022/03/28 09:23:44;;;;;;;5.63;3.25;;;;;;;11.03;67.88;102803.94;5111239;28;20027;-84
2022/03/28 09:26:13;;;;;;;5.40;3.35;;;;;;;11.07;67.71;102800.78;5095286;28;20023;-84
2022/03/28 09:28:46;;;;;;;5.90;3.60;;;;;;;10.95;67.88;102790.22;5111752;28;20067;-84
2022/03/28 09:31:18;;;;;;;4.40;3.55;;;;;;;10.86;68.19;102766.84;5111804;28;20046;-84
2022/03/28 09:34:15;;;;;;;7.78;3.65;;;;;;;11.02;68.24;102789.03;5111553;28;20466;-84
2022/03/28 09:36:52;;;;;;;5.28;3.75;;;;;;;11.06;67.89;102792.03;5112054;28;20028;-84
2022/03/28 09:39:19;;;;;;;4.97;3.40;;;;;;;11.06;68.10;102793.75;5111639;28;20028;-84
2022/03/28 09:42:03;;;;;;;5.43;3.63;;;;;;;10.95;68.07;102766.69;5111328;28;20032;-85
2022/03/28 09:44:39;;;;;;;4.07;3.20;;;;;;;10.74;68.50;102729.19;5112996;28;20144;-84
2022/03/28 09:47:07;;;;;;;5.25;3.63;;;;;;;11.04;68.43;102782.25;5112976;28;20040;-84
2022/03/28 09:49:33;;;;;;;5.30;3.15;;;;;;;10.95;68.27;102762.38;5112945;28;20028;-83
2022/03/28 09:52:13;;;;;;;4.47;3.22;;;;;;;11.02;68.44;102769.03;5111802;28;20041;-84
2022/03/28 09:54:45;;;;;;;4.57;3.20;;;;;;;10.87;68.23;102741.59;5113170;28;20019;-85
2022/03/28 09:57:13;;;;;;;4.82;3.70;;;;;;;11.02;68.33;102763.81;5111917;28;20030;-83
2022/03/28 09:59:40;;;;;;;4.57;3.42;;;;;;;10.99;68.34;102764.47;5094962;28;20487;-84
2022/03/28 10:02:26;;;;;;;5.32;3.22;;;;;;;10.89;68.02;102734.81;5111362;28;20031;-83
2022/03/28 10:04:55;;;;;;;4.65;3.10;;;;;;;11.06;68.10;102765.91;5111733;28;20094;-84
2022/03/28 10:07:21;;;;;;;4.97;3.50;;;;;;;11.03;67.98;102755.19;5112251;28;20023;-84
2022/03/28 10:09:47;;;;;;;4.80;3.65;;;;;;;11.04;68.21;102751.78;5111939;28;20027;-83
2022/03/28 10:12:14;;;;;;;5.40;3.45;;;;;;;11.03;68.26;102749.03;5113325;28;20031;-83
2022/03/28 10:14:40;;;;;;;4.30;3.40;;;;;;;10.97;68.37;102744.22;5119770;28;20024;-84
2022/03/28 10:17:06;;;;;;;4.80;3.70;;;;;;;11.03;68.29;102744.72;5123655;27;20028;-83
2022/03/28 10:19:34;;;;;;;4.45;3.28;;;;;;;10.97;68.17;102732.06;5116728;28;20024;-83
2022/03/28 10:22:02;;;;;;;5.50;3.85;;;;;;;11.01;68.14;102725.38;5113116;28;20031;-83
2022/03/28 10:24:29;;;;;;;5.07;3.63;;;;;;;11.02;68.40;102737.66;5112747;28;20051;-83
2022/03/28 10:26:59;;;;;;;6.05;3.17;;;;;;;10.85;68.45;102710.09;5111469;28;20081;-82
2022/03/28 10:29:34;;;;;;;5.38;3.38;;;;;;;11.03;68.56;102728.09;5112839;28;20031;-83
2022/03/28 10:32:02;;;;;;;4.07;3.08;;;;;;;11.00;68.71;102729.69;5111489;28;20470;-83
2022/03/28 10:35:00;;;;;;;5.57;3.45;;;;;;;11.08;68.41;102721.59;5112925;28;20080;-83
2022/03/28 10:37:49;;;;;;;5.15;3.30;;;;;;;11.08;68.34;102721.59;5091723;28;20119;-83
2022/03/28 10:40:19;;;;;;;5.55;3.58;;;;;;;10.87;68.82;102686.72;5112085;28;20501;-83
2022/03/28 10:43:13;;;;;;;4.78;3.45;;;;;;;11.04;68.52;102709.03;5112848;28;20037;-83
2022/03/28 10:46:00;;;;;;;4.78;3.40;;;;;;;11.04;68.40;102690.72;5112603;28;20513;-83
2022/03/28 10:48:44;;;;;;;4.80;3.33;;;;;;;11.08;68.68;102698.94;5111521;28;20031;-83
2022/03/28 10:51:23;;;;;;;5.10;3.33;;;;;;;11.10;68.14;102691.25;5112527;28;20027;-83
2022/03/28 10:53:53;;;;;;;3.88;3.13;;;;;;;11.06;68.58;102677.00;5111423;28;20028;-83
2022/03/28 10:56:24;;;;;;;4.60;3.38;;;;;;;10.99;68.53;102666.84;5112692;28;20059;-83
2022/03/28 10:59:05;;;;;;;4.80;3.65;;;;;;;11.07;68.47;102665.75;5111155;28;20076;-83
2022/03/28 11:01:42;;;;;;;6.03;3.60;;;;;;;11.06;68.69;102668.25;5112640;28;20024;-83
2022/03/28 11:04:15;;;;;;;;;;;;;;;11.05;68.94;102666.41;5112870;28;20032;-83
2022/03/28 11:06:49;;;;;;;4.10;3.00;;;;;;;11.04;68.79;102668.09;5112405;28;19916;-83
2022/03/28 11:09:41;;;;;;;4.40;3.05;;;;;;;10.95;69.00;102642.13;5112467;28;20019;-83
2022/03/28 11:12:13;;;;;;;4.00;3.20;;;;;;;11.00;68.84;102647.72;5112450;28;20066;-83
2022/03/28 11:14:43;;;;;;;4.03;3.15;;;;;;;11.05;68.98;102640.25;5114234;28;20020;-82
2022/03/28 11:17:15;;;;;;;4.53;3.25;;;;;;;10.99;69.04;102625.91;5116978;28;20031;-84
2022/03/28 11:19:54;;;;;;;3.45;3.10;;;;;;;10.97;68.82;102623.97;5115444;28;20080;-84
2022/03/28 11:22:37;;;;;;;3.70;3.00;;;;;;;11.04;68.82;102622.75;5116625;28;20032;-83
2022/03/28 11:25:03;;;;;;;3.55;3.03;;;;;;;10.90;69.02;102599.03;5115278;28;20104;-83
2022/03/28 11:27:31;;;;;;;4.00;3.00;;;;;;;10.88;69.09;102604.88;5115049;28;20504;-83
2022/03/28 11:30:11;;;;;;;5.15;3.10;;;;;;;10.81;69.19;102564.28;5116378;28;20151;-83
2022/03/28 11:32:37;;;;;;;4.90;3.13;;;;;;;10.97;69.16;102595.22;5115274;28;20553;-83